Terminal Aerodrome Forecast
Issued by NWS Northern Indiana

Home | Current Version | Previous Version | Graphics & Text | Print | Product List | Glossary On
Versions: 1 2 3 4 5 6 7 8 9 10 11 12 13 14 15 16 17 18 19
822
FTUS43 KIWX 241820 AAA
TAFFWA
TAF AMD
KFWA 241820Z 2418/2518 08008KT P6SM -SHRA VCTS BKN030CB BKN080
      TEMPO 2418/2420 4SM -TSRA BKN035CB
     FM242300 04005KT 4SM SHRA VCTS OVC030CB
     FM250600 02006KT 3SM SHRA OVC008
     FM251200 34007KT P6SM VCSH OVC008
     FM251600 32009KT P6SM VCSH OVC020=

USA.gov is the U.S. government's official web portal to all federal, state and local government web resources and services.